Time;durP1;ratioP1;P1;durP2;ratioP2;P2;SDS_P1;SDS_P2;PMS_P1;PMS_P2;Temp;Humidity;BMP_temperature;BMP_pressure;BME280_temperature;BME280_humidity;BME280_pressure;Samples;Min_cycle;Max_cycle;Signal;HPM_P1;HPM_P2
2020/12/01 00:02:03;;;;;;;65.27;25.53;;;;;;;-0.61;81.87;100635.11;126501;1098;23505;-55
2020/12/01 00:04:33;;;;;;;64.07;24.20;;;;;;;-0.60;82.18;100631.20;126426;1098;24803;-54
2020/12/01 00:07:02;;;;;;;65.20;23.13;;;;;;;-0.61;81.92;100637.86;126325;1098;23369;-52
2020/12/01 00:09:31;;;;;;;59.13;22.03;;;;;;;-0.63;82.26;100637.46;126480;1099;23369;-57
2020/12/01 00:12:01;;;;;;;55.45;23.90;;;;;;;-0.64;81.83;100633.93;126279;1098;28254;-55
2020/12/01 00:14:30;;;;;;;54.73;21.40;;;;;;;-0.66;82.22;100625.32;126546;1098;23422;-53
2020/12/01 00:17:00;;;;;;;59.70;22.55;;;;;;;-0.67;82.40;100636.69;126495;1098;23345;-55
2020/12/01 00:19:30;;;;;;;62.70;23.10;;;;;;;-0.66;82.75;100627.30;126491;1099;23505;-52
2020/12/01 00:21:59;;;;;;;60.65;22.30;;;;;;;-0.63;82.64;100626.50;126561;1098;26808;-52
2020/12/01 00:24:29;;;;;;;62.08;22.87;;;;;;;-0.62;82.00;100620.61;126441;1098;23390;-55
2020/12/01 00:26:58;;;;;;;61.60;23.83;;;;;;;-0.60;82.76;100620.23;126514;1099;23505;-55
2020/12/01 00:29:27;;;;;;;54.87;21.10;;;;;;;-0.60;82.73;100620.23;126417;1098;23369;-56
2020/12/01 00:31:56;;;;;;;58.53;22.10;;;;;;;-0.60;82.54;100610.03;127718;1099;23584;-54
2020/12/01 00:34:25;;;;;;;51.83;22.03;;;;;;;-0.58;82.69;100604.17;126396;1098;25503;-55
2020/12/01 00:36:56;;;;;;;62.88;23.95;;;;;;;-0.55;81.96;100606.11;126515;1098;23520;-58
2020/12/01 00:39:25;;;;;;;54.10;20.25;;;;;;;-0.52;82.11;100605.33;126684;1098;23300;-53
2020/12/01 00:41:54;;;;;;;55.50;20.60;;;;;;;-0.52;82.08;100597.90;126435;1098;23534;-54
2020/12/01 00:44:24;;;;;;;58.10;22.22;;;;;;;-0.53;82.21;100590.83;126632;1099;23406;-55
2020/12/01 00:46:54;;;;;;;61.40;22.60;;;;;;;-0.51;82.69;100596.70;126443;1099;23376;-53
2020/12/01 00:49:24;;;;;;;55.50;21.70;;;;;;;-0.49;82.49;100599.83;126432;1098;23306;-55
2020/12/01 00:51:53;;;;;;;61.88;21.15;;;;;;;-0.49;82.89;100594.34;126522;1099;25825;-54
2020/12/01 00:54:22;;;;;;;58.80;22.67;;;;;;;-0.46;82.25;100592.78;126524;1098;23330;-53
2020/12/01 00:56:52;;;;;;;56.17;21.10;;;;;;;-0.44;82.47;100595.91;126484;1099;27714;-55
2020/12/01 00:59:22;;;;;;;54.20;21.33;;;;;;;-0.40;83.06;100599.42;126486;1098;23382;-53
2020/12/01 01:01:51;;;;;;;54.15;20.68;;;;;;;-0.37;82.02;100591.17;126577;1098;27876;-55
2020/12/01 01:04:20;;;;;;;59.70;22.87;;;;;;;-0.34;82.29;100589.61;126539;1098;27811;-57
2020/12/01 01:06:50;;;;;;;57.37;21.07;;;;;;;-0.31;82.81;100597.81;126475;1098;23426;-53
2020/12/01 01:09:20;;;;;;;55.17;20.60;;;;;;;-0.30;82.95;100593.91;126481;1099;23366;-53
2020/12/01 01:11:49;;;;;;;55.30;22.20;;;;;;;-0.26;82.93;100591.93;126434;1099;27611;-56
2020/12/01 01:14:18;;;;;;;59.87;21.83;;;;;;;-0.24;82.37;100586.03;126465;1098;24672;-53
2020/12/01 01:16:47;;;;;;;58.57;21.80;;;;;;;-0.21;82.17;100585.26;126540;1099;23319;-52
2020/12/01 01:19:17;;;;;;;55.77;22.63;;;;;;;-0.18;82.37;100578.95;126374;1098;23321;-52
2020/12/01 01:21:48;;;;;;;58.73;23.13;;;;;;;-0.16;82.38;100584.83;126546;1098;26779;-56
2020/12/01 01:24:19;;;;;;;55.10;22.00;;;;;;;-0.13;82.57;100575.81;126566;1098;23304;-52
2020/12/01 01:26:49;;;;;;;61.57;23.80;;;;;;;-0.15;82.78;100578.97;126503;1099;23390;-59
2020/12/01 01:29:20;;;;;;;57.93;22.75;;;;;;;-0.11;82.91;100581.69;126484;1098;23333;-53
2020/12/01 01:31:51;;;;;;;56.55;22.70;;;;;;;-0.12;82.99;100569.92;126547;1098;23319;-59
2020/12/01 01:34:21;;;;;;;58.80;22.43;;;;;;;-0.08;82.53;100569.89;126448;1098;27904;-55
2020/12/01 01:36:51;;;;;;;53.30;20.53;;;;;;;-0.06;82.73;100560.09;126573;1098;23315;-56
2020/12/01 01:39:20;;;;;;;55.05;22.20;;;;;;;-0.05;82.19;100555.39;126490;1098;23373;-54
2020/12/01 01:41:49;;;;;;;56.30;23.40;;;;;;;-0.03;82.35;100556.56;126490;1098;23315;-55
2020/12/01 01:44:25;;;;;;;57.70;19.93;;;;;;;0.00;82.10;100554.98;126606;1099;28848;-53
2020/12/01 01:46:56;;;;;;;50.73;20.93;;;;;;;0.00;82.72;100544.77;126561;1099;23380;-57
2020/12/01 01:49:33;;;;;;;51.80;18.83;;;;;;;0.00;82.38;100533.03;126375;1098;23411;-56
2020/12/01 01:52:05;;;;;;;41.63;17.73;;;;;;;0.01;81.66;100551.04;126454;1098;26830;-56
2020/12/01 01:54:34;;;;;;;46.33;17.40;;;;;;;0.02;82.47;100547.12;126536;1098;27845;-58
2020/12/01 01:57:06;;;;;;;47.07;17.13;;;;;;;0.03;81.95;100534.16;126546;1098;26798;-53
2020/12/01 01:59:36;;;;;;;48.50;18.20;;;;;;;0.05;82.73;100531.80;126457;1093;29860;-55
2020/12/01 02:02:06;;;;;;;44.95;15.20;;;;;;;0.04;81.83;100538.48;126485;1098;25019;-53
2020/12/01 02:04:35;;;;;;;42.93;15.83;;;;;;;0.05;82.32;100531.80;126544;1099;23309;-54
2020/12/01 02:07:06;;;;;;;43.17;15.77;;;;;;;0.05;82.47;100518.86;126464;1098;27840;-57
2020/12/01 02:09:42;;;;;;;46.50;16.63;;;;;;;0.07;82.34;100532.18;126534;1098;25021;-54
2020/12/01 02:12:15;;;;;;;42.17;17.37;;;;;;;0.10;82.10;100525.91;126617;1099;23291;-53
2020/12/01 02:14:49;;;;;;;39.60;15.47;;;;;;;0.11;82.52;100522.75;126451;1098;23320;-59
2020/12/01 02:17:24;;;;;;;40.27;14.87;;;;;;;0.14;81.85;100523.91;126578;1098;26279;-53
2020/12/01 02:19:56;;;;;;;42.77;15.37;;;;;;;0.11;81.58;100519.22;126375;1099;26779;-55
2020/12/01 02:22:28;;;;;;;40.30;14.27;;;;;;;0.11;81.82;100517.25;126503;1099;23315;-57
2020/12/01 02:24:59;;;;;;;39.00;13.63;;;;;;;0.11;82.08;100517.25;126523;1098;25095;-54
2020/12/01 02:27:29;;;;;;;42.47;14.70;;;;;;;0.11;81.71;100503.53;126456;1099;23324;-56
2020/12/01 02:29:59;;;;;;;34.20;12.77;;;;;;;0.13;81.96;100503.91;126512;1099;23629;-54
2020/12/01 02:32:29;;;;;;;36.88;13.83;;;;;;;0.17;82.26;100499.17;126647;1098;25080;-55
2020/12/01 02:35:00;;;;;;;37.40;13.50;;;;;;;0.19;81.59;100491.31;126411;1098;23369;-53
2020/12/01 02:37:31;;;;;;;37.93;14.20;;;;;;;0.20;81.98;100487.41;126439;1093;23307;-56
2020/12/01 02:40:01;;;;;;;37.30;13.95;;;;;;;0.20;82.30;100487.41;126568;1098;23389;-54
2020/12/01 02:42:29;;;;;;;;;;;;;;;0.21;82.36;100486.20;126517;1098;23377;-53
2020/12/01 02:44:59;;;;;;;31.40;11.27;;;;;;;0.22;82.20;100484.25;126411;1098;21506;-54
2020/12/01 02:47:30;;;;;;;32.73;12.53;;;;;;;0.23;81.85;100475.59;126469;1098;27774;-56
2020/12/01 02:49:59;;;;;;;34.10;12.30;;;;;;;0.25;81.57;100483.45;126541;1099;23600;-54
2020/12/01 02:52:28;;;;;;;38.85;13.15;;;;;;;0.27;81.40;100478.34;126383;1098;23534;-54
2020/12/01 02:54:57;;;;;;;36.97;12.27;;;;;;;0.29;82.06;100479.47;126406;1099;23323;-53
2020/12/01 02:57:27;;;;;;;31.73;11.57;;;;;;;0.30;81.74;100472.02;126398;1098;23467;-55
2020/12/01 02:59:56;;;;;;;30.82;11.30;;;;;;;0.29;81.94;100473.98;126491;1099;23323;-54
2020/12/01 03:02:25;;;;;;;32.30;9.20;;;;;;;0.30;81.99;100472.02;126414;1098;23419;-55
2020/12/01 03:04:54;;;;;;;33.13;11.73;;;;;;;0.31;81.69;100465.36;126322;1099;26350;-59
2020/12/01 03:07:23;;;;;;;32.93;10.63;;;;;;;0.30;81.15;100467.32;126359;1098;23296;-55
2020/12/01 03:09:53;;;;;;;30.72;11.55;;;;;;;0.31;81.73;100462.61;126363;1099;23327;-55
2020/12/01 03:12:22;;;;;;;33.45;12.55;;;;;;;0.33;81.23;100462.98;126414;1098;23369;-54
2020/12/01 03:14:52;;;;;;;30.50;10.50;;;;;;;0.36;81.26;100456.67;126473;1098;23356;-53
2020/12/01 03:17:21;;;;;;;30.35;10.75;;;;;;;0.36;81.27;100457.45;126171;1099;23370;-57
2020/12/01 03:19:50;;;;;;;32.27;10.67;;;;;;;0.36;81.95;100451.97;126206;1098;23324;-56
2020/12/01 03:22:19;;;;;;;29.67;10.40;;;;;;;0.37;81.67;100448.05;126174;1099;26411;-56
2020/12/01 03:24:48;;;;;;;29.93;10.47;;;;;;;0.37;81.55;100452.75;126149;1098;26396;-56
2020/12/01 03:27:17;;;;;;;30.80;10.07;;;;;;;0.36;81.32;100457.45;126157;1099;23443;-58
2020/12/01 03:29:46;;;;;;;30.33;10.47;;;;;;;0.39;81.91;100461.38;126261;1099;28302;-58
2020/12/01 03:32:15;;;;;;;32.90;10.60;;;;;;;0.38;81.44;100454.30;126164;1094;23884;-59
2020/12/01 03:34:44;;;;;;;30.57;9.67;;;;;;;0.40;81.42;100451.93;126503;1098;26305;-59
2020/12/01 03:37:14;;;;;;;32.00;11.40;;;;;;;0.41;81.90;100454.30;126552;1098;23329;-59
2020/12/01 03:39:43;;;;;;;30.35;11.25;;;;;;;0.41;81.40;100454.30;126392;1098;23690;-56
2020/12/01 03:42:12;;;;;;;31.10;11.30;;;;;;;0.42;81.61;100453.09;126422;1099;27762;-54
2020/12/01 03:44:41;;;;;;;27.23;9.90;;;;;;;0.44;81.27;100452.67;126439;1098;23371;-54
2020/12/01 03:47:11;;;;;;;32.87;11.50;;;;;;;0.43;80.79;100442.89;126524;1098;23320;-55
2020/12/01 03:49:40;;;;;;;28.10;10.00;;;;;;;0.42;80.98;100444.06;126464;1098;25002;-53
2020/12/01 03:52:10;;;;;;;32.90;12.00;;;;;;;0.40;81.09;100438.98;126471;1098;27144;-58
2020/12/01 03:54:39;;;;;;;33.87;11.47;;;;;;;0.42;81.31;100444.85;126531;1099;26820;-55
2020/12/01 03:57:08;;;;;;;26.23;10.10;;;;;;;0.42;81.60;100436.61;126495;1098;23508;-57
2020/12/01 03:59:38;;;;;;;31.70;11.37;;;;;;;0.43;81.12;100434.66;126495;1099;23440;-58
2020/12/01 04:02:08;;;;;;;32.75;11.40;;;;;;;0.43;81.17;100440.15;126427;1098;23283;-57
2020/12/01 04:04:38;;;;;;;31.60;10.88;;;;;;;0.46;81.08;100442.06;126564;1098;23543;-54
2020/12/01 04:07:08;;;;;;;31.47;10.70;;;;;;;0.45;81.54;100441.31;126519;1099;23384;-56
2020/12/01 04:09:37;;;;;;;28.40;10.90;;;;;;;0.46;81.43;100439.32;126412;1098;23319;-53
2020/12/01 04:12:06;;;;;;;33.87;10.33;;;;;;;0.45;81.54;100433.06;126400;1099;27470;-54
2020/12/01 04:14:35;;;;;;;31.73;11.53;;;;;;;0.44;81.54;100442.48;126464;1098;27994;-55
2020/12/01 04:17:05;;;;;;;34.83;12.67;;;;;;;0.45;81.65;100427.58;126294;1098;23382;-58
2020/12/01 04:19:34;;;;;;;34.03;11.83;;;;;;;0.47;81.60;100427.95;126391;1098;23357;-57
2020/12/01 04:22:04;;;;;;;35.98;12.73;;;;;;;0.48;80.95;100426.75;126480;1099;23307;-60
2020/12/01 04:24:33;;;;;;;34.73;12.40;;;;;;;0.49;81.20;100425.58;126545;1098;27832;-54
2020/12/01 04:27:02;;;;;;;29.97;11.70;;;;;;;0.46;81.38;100425.59;126530;1098;23333;-57
2020/12/01 04:29:31;;;;;;;30.83;12.93;;;;;;;0.49;80.79;100435.77;126473;1099;23382;-54
2020/12/01 04:32:00;;;;;;;37.70;12.70;;;;;;;0.47;81.42;100425.20;126365;1099;23383;-57
2020/12/01 04:34:29;;;;;;;37.23;13.47;;;;;;;0.46;80.70;100428.34;126409;1098;23316;-54
2020/12/01 04:36:59;;;;;;;32.00;12.90;;;;;;;0.45;81.31;100429.53;126506;1098;23587;-57
2020/12/01 04:39:29;;;;;;;36.25;13.25;;;;;;;0.45;81.23;100427.58;126585;1098;23380;-57
2020/12/01 04:41:58;;;;;;;37.50;12.63;;;;;;;0.43;80.83;100431.91;126515;1098;28283;-57
2020/12/01 04:44:31;;;;;;;30.70;13.07;;;;;;;0.40;80.67;100432.70;126459;1098;27784;-54
2020/12/01 04:47:05;;;;;;;37.57;14.00;;;;;;;0.39;81.32;100436.66;126526;1099;23422;-58
2020/12/01 04:49:41;;;;;;;39.00;14.77;;;;;;;0.40;81.04;100440.95;126405;1099;23481;-55
2020/12/01 04:52:42;;;;;;;40.20;14.83;;;;;;;0.37;80.86;100439.81;126417;1098;28142;-56
2020/12/01 04:55:42;;;;;;;36.80;13.50;;;;;;;0.34;80.84;100437.08;126484;1093;23580;-56
2020/12/01 04:58:33;;;;;;;48.40;14.77;;;;;;;0.28;81.36;100427.72;126405;1098;23390;-55
2020/12/01 05:01:10;;;;;;;33.77;14.67;;;;;;;0.27;81.28;100428.91;126394;1098;23760;-56
2020/12/01 05:03:59;;;;;;;40.87;14.80;;;;;;;0.26;80.64;100430.88;126508;1098;23319;-54
2020/12/01 05:06:59;;;;;;;39.47;15.10;;;;;;;0.26;80.95;100430.88;126496;1099;28116;-54
2020/12/01 05:09:38;;;;;;;41.77;15.63;;;;;;;0.26;81.34;100419.89;126379;1098;23373;-54
2020/12/01 05:12:15;;;;;;;41.07;15.63;;;;;;;0.23;80.35;100420.69;126547;1099;23380;-54
2020/12/01 05:14:53;;;;;;;42.40;16.10;;;;;;;0.19;81.26;100433.66;126427;1099;23447;-60
2020/12/01 05:17:56;;;;;;;48.95;18.75;;;;;;;0.18;81.16;100431.33;126463;1098;23327;-59
2020/12/01 05:20:25;;;;;;;55.73;24.77;;;;;;;0.14;80.37;100433.32;126418;1099;25015;-57
2020/12/01 05:22:58;;;;;;;54.75;24.05;;;;;;;0.08;80.38;100440.43;126470;1099;23386;-56
2020/12/01 05:25:29;;;;;;;55.57;23.43;;;;;;;0.07;81.33;100445.12;126425;1098;23986;-59
2020/12/01 05:28:11;;;;;;;46.85;22.35;;;;;;;0.04;81.09;100448.70;126494;1098;23339;-54
2020/12/01 05:30:43;;;;;;;43.30;18.60;;;;;;;-0.01;80.24;100451.86;126379;1098;23377;-55
2020/12/01 05:33:23;;;;;;;44.00;17.63;;;;;;;-0.08;81.04;100447.19;126466;1098;23316;-53
2020/12/01 05:36:04;;;;;;;55.98;20.17;;;;;;;-0.12;81.22;100440.16;126354;1098;26305;-55
2020/12/01 05:38:34;;;;;;;122.73;48.10;;;;;;;-0.18;80.63;100456.27;126669;1099;23307;-54
2020/12/01 05:41:20;;;;;;;131.50;48.98;;;;;;;-0.21;80.40;100448.08;126852;1098;23315;-53
2020/12/01 05:43:57;;;;;;;108.97;41.67;;;;;;;-0.23;80.63;100451.20;126395;1099;23354;-52
2020/12/01 05:46:33;;;;;;;108.23;38.83;;;;;;;-0.25;81.30;100461.79;126474;1098;23339;-52
2020/12/01 05:49:06;;;;;;;85.23;31.47;;;;;;;-0.27;80.76;100464.16;126591;1099;25080;-53
2020/12/01 05:51:42;;;;;;;91.53;33.97;;;;;;;-0.31;80.97;100457.91;126516;1098;23618;-53
2020/12/01 05:54:17;;;;;;;106.23;41.40;;;;;;;-0.34;80.77;100453.23;126331;1099;23324;-57
2020/12/01 05:56:51;;;;;;;120.83;42.17;;;;;;;-0.34;81.33;100457.94;126779;1098;23370;-56
2020/12/01 05:59:23;;;;;;;126.93;47.40;;;;;;;-0.34;81.07;100460.68;126298;1093;23439;-53
2020/12/01 06:01:59;;;;;;;120.50;45.95;;;;;;;-0.33;81.00;100462.26;126331;1098;23315;-55
2020/12/01 06:04:28;;;;;;;117.50;46.05;;;;;;;-0.33;81.13;100460.27;126545;1099;23345;-53
2020/12/01 06:07:19;;;;;;;100.65;40.28;;;;;;;-0.35;81.09;100454.41;126528;1098;23376;-56
2020/12/01 06:10:15;;;;;;;90.40;38.73;;;;;;;-0.35;80.91;100457.15;126515;1098;23363;-60
2020/12/01 06:13:15;;;;;;;79.47;34.40;;;;;;;-0.38;80.93;100455.22;126560;1099;23306;-54
2020/12/01 06:15:58;;;;;;;63.70;27.20;;;;;;;-0.44;80.43;100462.30;126057;1101;23393;-54
2020/12/01 06:18:38;;;;;;;60.07;23.83;;;;;;;-0.47;80.23;100465.83;126226;1096;23466;-58
2020/12/01 06:21:09;;;;;;;55.88;25.05;;;;;;;-0.46;80.94;100466.63;126696;1101;23653;-59
2020/12/01 06:23:59;;;;;;;56.83;23.87;;;;;;;-0.46;80.52;100456.44;126018;1101;23542;-55
2020/12/01 06:26:52;;;;;;;49.70;21.17;;;;;;;-0.47;80.80;100465.83;126130;1101;26461;-57
2020/12/01 06:29:56;;;;;;;50.57;20.17;;;;;;;-0.47;81.06;100470.53;126153;1096;23480;-56
2020/12/01 06:32:56;;;;;;;40.30;17.17;;;;;;;-0.51;80.15;100469.77;126148;1101;24820;-57
2020/12/01 06:36:00;;;;;;;42.57;17.20;;;;;;;-0.50;81.00;100472.13;126203;1101;23395;-58
2020/12/01 06:38:50;;;;;;;52.50;18.00;;;;;;;-0.53;80.35;100470.17;125724;1103;23495;-58
2020/12/01 06:41:21;;;;;;;42.65;18.35;;;;;;;-0.54;80.80;100478.80;125777;1103;23719;-55
2020/12/01 06:43:55;;;;;;;46.30;17.20;;;;;;;-0.59;81.02;100471.77;125745;1103;23352;-54
2020/12/01 06:46:40;;;;;;;49.40;18.37;;;;;;;-0.59;80.20;100473.72;125888;1104;23610;-57
2020/12/01 06:49:12;;;;;;;49.20;17.45;;;;;;;-0.62;80.27;100471.79;125691;1104;23449;-56
2020/12/01 06:51:46;;;;;;;48.40;18.23;;;;;;;-0.62;80.44;100474.53;125909;1102;27689;-57
2020/12/01 06:54:16;;;;;;;46.60;16.60;;;;;;;-0.64;81.13;100472.16;126154;1101;23440;-58
2020/12/01 06:56:58;;;;;;;45.43;17.43;;;;;;;-0.66;80.28;100473.77;126158;1101;23399;-58
2020/12/01 06:59:28;;;;;;;44.27;15.77;;;;;;;-0.67;80.82;100478.46;126448;1102;23321;-56
2020/12/01 07:02:17;;;;;;;48.85;16.27;;;;;;;-0.70;80.32;100481.98;126236;1101;23334;-56
2020/12/01 07:04:47;;;;;;;44.60;16.20;;;;;;;-0.72;80.43;100487.08;126028;1101;23343;-56
2020/12/01 07:07:28;;;;;;;44.83;16.75;;;;;;;-0.71;81.40;100477.69;126147;1097;23300;-58
2020/12/01 07:09:58;;;;;;;47.55;17.40;;;;;;;-0.69;80.55;100482.77;126121;1101;23337;-56
2020/12/01 07:12:44;;;;;;;48.58;19.73;;;;;;;-0.70;81.32;100490.20;126073;1101;26324;-53
2020/12/01 07:15:25;;;;;;;55.13;20.30;;;;;;;-0.68;81.58;100485.11;126148;1098;23385;-56
2020/12/01 07:18:03;;;;;;;64.40;24.57;;;;;;;-0.64;81.71;100485.11;126555;1098;23369;-56
2020/12/01 07:20:42;;;;;;;79.13;25.23;;;;;;;-0.63;81.57;100495.67;126399;1099;23506;-56
2020/12/01 07:23:26;;;;;;;73.10;25.75;;;;;;;-0.60;81.60;100494.11;126573;1099;25444;-56
2020/12/01 07:26:20;;;;;;;74.35;25.40;;;;;;;-0.54;81.66;100490.56;126546;1098;25083;-56
2020/12/01 07:29:04;;;;;;;58.43;22.77;;;;;;;-0.49;82.06;100492.88;126320;1098;23369;-56
2020/12/01 07:31:35;;;;;;;64.80;22.93;;;;;;;-0.44;82.07;100497.17;126307;1098;23356;-54
2020/12/01 07:34:19;;;;;;;69.10;25.00;;;;;;;-0.39;82.13;100499.48;126349;1098;23317;-57
2020/12/01 07:36:50;;;;;;;65.70;22.47;;;;;;;-0.35;82.26;100503.78;126433;1098;23383;-58
2020/12/01 07:39:24;;;;;;;63.03;21.73;;;;;;;-0.31;82.17;100501.80;126660;1099;23369;-54
2020/12/01 07:41:58;;;;;;;53.50;19.93;;;;;;;-0.24;81.37;100495.50;126220;1098;23435;-56
2020/12/01 07:44:31;;;;;;;52.15;20.80;;;;;;;-0.18;81.44;100499.39;126472;1098;24937;-54
2020/12/01 07:47:06;;;;;;;55.27;21.97;;;;;;;-0.17;82.18;100504.50;126417;1099;23315;-57
2020/12/01 07:49:36;;;;;;;45.50;17.43;;;;;;;-0.09;81.89;100507.97;126972;1099;23424;-56
2020/12/01 07:52:20;;;;;;;49.53;19.63;;;;;;;-0.06;82.12;100499.71;126330;1099;23367;-57
2020/12/01 07:54:57;;;;;;;55.00;20.03;;;;;;;0.01;81.50;100498.89;126309;1098;23315;-54
2020/12/01 07:57:26;;;;;;;50.57;19.67;;;;;;;0.08;81.95;100506.30;126542;1098;23531;-56
2020/12/01 07:59:56;;;;;;;44.50;18.75;;;;;;;0.11;81.80;100491.77;126282;1098;23361;-55
2020/12/01 08:02:29;;;;;;;51.67;20.57;;;;;;;0.15;81.41;100495.27;126449;1098;26298;-56
2020/12/01 08:05:04;;;;;;;51.07;17.77;;;;;;;0.17;81.64;100493.69;126412;1099;23381;-55
2020/12/01 08:07:35;;;;;;;43.97;17.20;;;;;;;0.21;81.72;100493.69;126455;1098;25080;-54
2020/12/01 08:10:08;;;;;;;53.47;21.47;;;;;;;0.23;81.34;100500.30;126503;1098;23281;-58
2020/12/01 08:12:43;;;;;;;43.80;18.03;;;;;;;0.27;81.55;100519.52;126922;1099;23422;-56
2020/12/01 08:15:16;;;;;;;45.97;17.70;;;;;;;0.31;81.56;100515.55;126462;1099;23394;-57
2020/12/01 08:17:46;;;;;;;44.20;17.95;;;;;;;0.34;81.96;100509.27;126415;1098;23465;-56
2020/12/01 08:20:19;;;;;;;46.42;18.75;;;;;;;0.38;81.73;100510.02;126273;1098;23374;-57
2020/12/01 08:22:58;;;;;;;47.53;17.77;;;;;;;0.40;81.60;100507.64;126731;1098;23489;-59
2020/12/01 08:25:30;;;;;;;45.77;17.53;;;;;;;0.45;81.69;100503.69;127002;1098;23863;-55
2020/12/01 08:28:14;;;;;;;41.80;16.60;;;;;;;0.48;81.51;100511.11;126295;1098;26823;-56
2020/12/01 08:31:05;;;;;;;43.73;17.03;;;;;;;0.52;81.16;100509.91;126119;1093;23387;-56
2020/12/01 08:34:00;;;;;;;42.87;16.40;;;;;;;0.60;81.53;100516.14;129091;1099;26470;-56
2020/12/01 08:37:02;;;;;;;40.03;14.93;;;;;;;0.63;81.21;100510.61;127812;1099;23303;-57
2020/12/01 08:39:44;;;;;;;47.10;16.23;;;;;;;0.68;81.14;100512.90;126452;1099;23441;-59
2020/12/01 08:42:25;;;;;;;43.50;17.13;;;;;;;0.72;81.39;100516.39;130278;1098;23106;-57
2020/12/01 08:45:38;;;;;;;45.70;16.93;;;;;;;0.76;81.20;100517.17;129692;1099;26308;-58
2020/12/01 08:48:17;;;;;;;37.63;14.17;;;;;;;0.83;81.72;100517.09;126455;1099;23315;-57
2020/12/01 08:50:47;;;;;;;44.73;17.43;;;;;;;0.90;81.12;100518.22;126551;1098;23886;-56
2020/12/01 08:53:20;;;;;;;41.48;15.25;;;;;;;0.95;81.64;100515.03;126172;1098;23310;-58
2020/12/01 08:55:53;;;;;;;40.43;15.47;;;;;;;0.99;80.93;100519.32;126143;1098;23367;-59
2020/12/01 08:58:39;;;;;;;42.33;15.87;;;;;;;1.04;81.24;100510.61;126350;1099;23315;-54
2020/12/01 09:01:12;;;;;;;44.80;15.23;;;;;;;1.11;80.66;100521.55;126464;1099;23337;-54
2020/12/01 09:03:54;;;;;;;41.90;15.93;;;;;;;1.14;80.62;100522.71;126436;1098;23319;-56
2020/12/01 09:06:29;;;;;;;45.83;19.60;;;;;;;1.21;80.60;100522.63;126656;1099;23319;-57
2020/12/01 09:09:05;;;;;;;42.60;16.43;;;;;;;1.25;80.83;100518.65;126880;1099;23357;-57
2020/12/01 09:14:43;;;;;;;45.90;16.13;;;;;;;1.32;80.37;100528.80;126369;1098;26554;-54
2020/12/01 09:17:24;;;;;;;33.67;13.33;;;;;;;1.35;80.32;100522.47;126531;1094;23329;-57
2020/12/01 09:20:18;;;;;;;38.57;14.07;;;;;;;1.37;80.75;100520.88;126608;1099;23370;-57
2020/12/01 09:22:49;;;;;;;40.73;14.50;;;;;;;1.39;79.99;100517.70;126404;1098;23328;-60
2020/12/01 09:25:20;;;;;;;;;;;;;;;1.43;79.40;100521.19;126686;1098;23386;-55
2020/12/01 09:27:51;;;;;;;37.05;14.00;;;;;;;1.45;79.80;100518.80;126952;1099;21516;-58
2020/12/01 09:30:32;;;;;;;38.47;13.90;;;;;;;1.47;80.11;100519.17;126544;1099;23468;-57
2020/12/01 09:33:02;;;;;;;36.73;15.57;;;;;;;1.52;80.22;100526.99;126857;1098;23370;-58
2020/12/01 09:35:32;;;;;;;49.57;18.20;;;;;;;1.57;80.19;100516.30;126453;1098;23372;-58
2020/12/01 09:38:02;;;;;;;47.87;19.73;;;;;;;1.59;80.39;100521.42;126174;1098;25161;-57
2020/12/01 09:40:33;;;;;;;39.10;15.80;;;;;;;1.62;80.10;100518.61;126279;1098;23369;-57
2020/12/01 09:43:10;;;;;;;43.40;16.25;;;;;;;1.64;80.35;100521.73;127196;1099;23413;-58
2020/12/01 09:45:41;;;;;;;40.60;15.53;;;;;;;1.69;80.35;100520.50;126257;1098;23325;-59
2020/12/01 09:48:16;;;;;;;42.90;16.03;;;;;;;1.73;79.56;100507.48;126374;1098;23439;-57
2020/12/01 09:50:46;;;;;;;37.07;14.13;;;;;;;1.76;79.62;100501.13;126402;1098;23315;-57
2020/12/01 09:56:09;;;;;;;39.73;14.33;;;;;;;1.82;79.67;100495.97;126554;1099;23312;-57
2020/12/01 10:10:21;;;;;;;39.37;15.90;;;;;;;1.91;79.63;100499.76;125992;1102;23479;-59
2020/12/01 10:12:55;;;;;;;39.17;14.90;;;;;;;1.94;79.07;100504.45;125874;1096;23358;-58
2020/12/01 10:15:47;;;;;;;36.03;13.63;;;;;;;1.95;78.71;100497.73;126314;1101;23366;-59
2020/12/01 10:18:34;;;;;;;40.00;15.90;;;;;;;1.98;78.44;100501.64;125987;1101;28414;-58
2020/12/01 10:27:11;;;;;;;38.97;14.93;;;;;;;2.10;78.03;100506.58;125833;1101;23351;-57
2020/12/01 10:35:26;;;;;;;44.80;15.57;;;;;;;2.17;78.27;100512.75;125903;1102;23515;-58
2020/12/01 10:37:58;;;;;;;43.23;15.98;;;;;;;2.18;77.82;100514.33;126538;1104;24067;-58
2020/12/01 10:40:30;;;;;;;39.10;13.00;;;;;;;2.19;77.88;100515.87;125540;1104;23418;-59
2020/12/01 10:43:00;;;;;;;36.45;14.55;;;;;;;2.19;78.05;100518.63;127279;1103;24792;-57
2020/12/01 10:45:33;;;;;;;38.60;15.60;;;;;;;2.20;78.22;100519.41;126483;1101;23404;-57
2020/12/01 10:48:03;;;;;;;45.83;16.17;;;;;;;2.21;78.04;100519.02;126518;1101;23445;-56
2020/12/01 10:50:33;;;;;;;44.70;17.87;;;;;;;2.22;78.07;100528.04;126828;1101;23787;-58
2020/12/01 10:53:03;;;;;;;37.20;15.70;;;;;;;2.22;77.16;100528.83;126045;1101;27184;-57
2020/12/01 10:55:34;;;;;;;39.15;15.00;;;;;;;2.23;77.71;100535.13;125647;1101;25056;-57
2020/12/01 10:58:04;;;;;;;36.13;14.37;;;;;;;2.23;77.60;100533.16;125599;1101;27970;-55
2020/12/01 11:00:33;;;;;;;41.73;16.30;;;;;;;2.25;77.55;100529.97;125603;1101;23357;-56
2020/12/01 11:03:06;;;;;;;42.70;16.60;;;;;;;2.25;77.60;100519.74;125469;1101;26607;-56
2020/12/01 11:05:36;;;;;;;51.30;20.20;;;;;;;2.26;77.90;100524.05;125615;1101;23388;-57
2020/12/01 11:08:06;;;;;;;50.20;16.80;;;;;;;2.28;77.39;100529.13;125899;1101;23342;-57
2020/12/01 11:10:36;;;;;;;49.10;19.48;;;;;;;2.31;77.74;100537.36;125489;1101;23375;-57
2020/12/01 11:13:07;;;;;;;50.10;19.03;;;;;;;2.31;77.41;100526.34;126119;1098;23327;-58
2020/12/01 11:15:37;;;;;;;44.23;19.37;;;;;;;2.34;77.48;100531.00;125966;1098;25868;-57
2020/12/01 11:18:07;;;;;;;43.05;17.80;;;;;;;2.37;77.81;100535.70;126229;1093;23369;-58
2020/12/01 11:20:37;;;;;;;46.17;19.07;;;;;;;2.39;77.26;100536.06;126187;1098;23460;-56
2020/12/01 11:23:06;;;;;;;41.35;17.27;;;;;;;2.39;77.78;100527.80;126114;1098;23330;-57
2020/12/01 11:25:36;;;;;;;39.85;17.07;;;;;;;2.39;77.40;100525.03;126009;1099;23642;-58
2020/12/01 11:28:05;;;;;;;36.40;15.70;;;;;;;2.39;77.51;100530.55;125864;1099;23453;-55
2020/12/01 11:30:34;;;;;;;33.93;14.00;;;;;;;2.38;77.05;100528.97;130252;1099;24116;-57
2020/12/01 11:33:04;;;;;;;43.60;16.07;;;;;;;2.41;77.39;100525.40;127713;1098;23296;-55
2020/12/01 11:35:34;;;;;;;48.45;18.17;;;;;;;2.45;77.79;100523.37;126227;1098;23373;-54
2020/12/01 11:38:04;;;;;;;40.35;18.42;;;;;;;2.48;77.30;100523.73;125965;1099;27958;-57
2020/12/01 11:40:34;;;;;;;31.20;12.45;;;;;;;2.51;77.30;100517.37;125871;1098;23362;-56
2020/12/01 11:43:04;;;;;;;35.85;14.00;;;;;;;2.53;76.89;100523.23;126040;1098;23909;-54
2020/12/01 11:45:34;;;;;;;32.45;12.68;;;;;;;2.54;77.08;100514.58;125972;1098;26814;-57
2020/12/01 11:48:04;;;;;;;33.70;13.15;;;;;;;2.54;77.05;100524.81;126803;1098;26779;-56
2020/12/01 11:50:35;;;;;;;41.45;15.53;;;;;;;2.55;76.97;100516.12;126271;1098;24979;-57
2020/12/01 11:53:07;;;;;;;42.48;17.07;;;;;;;2.58;77.03;100517.27;125846;1098;23367;-55
2020/12/01 11:55:37;;;;;;;35.10;14.53;;;;;;;2.59;76.57;100516.08;126483;1098;23385;-57
2020/12/01 11:58:07;;;;;;;37.43;15.13;;;;;;;2.61;77.02;100514.45;125964;1098;23326;-57
2020/12/01 12:00:37;;;;;;;37.78;15.20;;;;;;;2.63;76.12;100516.80;126176;1098;23374;-57
2020/12/01 12:03:09;;;;;;;40.83;14.87;;;;;;;2.65;76.07;100517.16;126642;1098;25187;-57
2020/12/01 12:05:41;;;;;;;37.57;14.63;;;;;;;2.68;76.10;100519.06;126334;1098;23422;-58
2020/12/01 12:08:12;;;;;;;35.60;14.30;;;;;;;2.69;76.31;100513.12;126298;1098;23392;-54